Time;durP1;ratioP1;P1;durP2;ratioP2;P2;SDS_P1;SDS_P2;PMS_P1;PMS_P2;Temp;Humidity;BMP_temperature;BMP_pressure;BME280_temperature;BME280_humidity;BME280_pressure;Samples;Min_cycle;Max_cycle;Signal;HPM_P1;HPM_P2
2021/10/23 00:00:18;;;;;;;2.28;1.20;;;;;;;5.62;58.37;97604.34;5073542;28;20067;-61
2021/10/23 00:02:43;;;;;;;3.08;1.75;;;;;;;5.63;59.31;97605.13;5072016;28;20082;-63
2021/10/23 00:05:09;;;;;;;5.22;1.70;;;;;;;5.63;59.03;97600.66;5073530;28;20051;-62
2021/10/23 00:07:35;;;;;;;2.72;2.00;;;;;;;5.62;59.09;97603.56;5072318;28;20045;-62
2021/10/23 00:10:01;;;;;;;4.43;1.60;;;;;;;5.63;59.37;97599.88;5073539;28;20426;-60
2021/10/23 00:12:27;;;;;;;5.35;1.77;;;;;;;5.54;59.05;97594.25;5073637;28;20040;-62
2021/10/23 00:14:52;;;;;;;3.85;1.73;;;;;;;5.53;59.57;97599.75;5073539;28;20079;-63
2021/10/23 00:17:18;;;;;;;3.67;2.25;;;;;;;5.52;59.35;97601.59;5073810;28;20516;-64
2021/10/23 00:19:44;;;;;;;4.45;1.98;;;;;;;5.52;59.06;97603.44;5055594;28;20060;-65
2021/10/23 00:22:10;;;;;;;2.92;1.70;;;;;;;5.57;58.91;97600.88;5073459;28;20047;-63
2021/10/23 00:24:35;;;;;;;4.10;1.98;;;;;;;5.61;59.29;97608.00;5055476;28;20394;-63
2021/10/23 00:27:02;;;;;;;2.47;1.73;;;;;;;5.64;58.75;97598.81;5073554;28;20041;-65
2021/10/23 00:29:28;;;;;;;3.80;1.95;;;;;;;5.65;58.74;97592.53;5072144;28;20474;-64
2021/10/23 00:31:54;;;;;;;4.57;2.00;;;;;;;5.66;58.61;97588.84;5038547;28;20045;-64
2021/10/23 00:34:20;;;;;;;5.75;2.17;;;;;;;5.65;58.80;97590.69;5055213;28;20098;-64
2021/10/23 00:36:47;;;;;;;3.67;1.77;;;;;;;5.65;59.38;97598.59;5055391;28;20490;-65
2021/10/23 00:39:13;;;;;;;1.85;1.63;;;;;;;5.70;59.19;97595.97;5073387;28;20075;-65
2021/10/23 00:41:39;;;;;;;4.25;1.75;;;;;;;5.75;59.01;97600.50;5073360;28;20091;-66
2021/10/23 00:44:05;;;;;;;4.88;2.47;;;;;;;5.80;58.43;97602.38;5072375;28;20044;-64
2021/10/23 00:46:31;;;;;;;4.57;2.13;;;;;;;5.80;58.89;97591.88;5072781;28;20410;-65
2021/10/23 00:48:57;;;;;;;2.28;1.55;;;;;;;5.84;58.99;97596.38;5071786;28;20139;-65
2021/10/23 00:51:23;;;;;;;3.00;1.70;;;;;;;5.79;58.66;97585.78;5072850;28;20096;-64
2021/10/23 00:53:49;;;;;;;2.95;1.60;;;;;;;5.90;58.95;97598.00;5055116;28;20040;-67
2021/10/23 00:56:17;;;;;;;3.15;1.65;;;;;;;5.95;58.33;97599.13;5072926;28;20123;-65
2021/10/23 00:58:45;;;;;;;4.60;2.30;;;;;;;5.99;58.72;97602.84;5071477;28;20090;-61
2021/10/23 01:01:10;;;;;;;3.53;1.83;;;;;;;6.00;58.39;97594.69;5072974;28;20483;-61
2021/10/23 01:03:39;;;;;;;2.28;1.70;;;;;;;6.00;58.80;97591.25;5072810;28;20513;-62
2021/10/23 01:06:06;;;;;;;6.15;2.33;;;;;;;6.02;58.12;97589.97;5072804;28;20044;-60
2021/10/23 01:08:32;;;;;;;4.03;1.95;;;;;;;6.02;58.77;97603.13;5072601;28;20053;-62
2021/10/23 01:10:58;;;;;;;3.45;1.67;;;;;;;6.02;58.78;97589.97;5071035;28;20118;-61
2021/10/23 01:13:24;;;;;;;2.78;2.13;;;;;;;6.05;58.37;97593.94;5072714;28;20048;-60
2021/10/23 01:15:50;;;;;;;5.75;1.98;;;;;;;6.07;58.64;97600.53;5072559;28;20086;-61
2021/10/23 01:18:16;;;;;;;8.23;2.20;;;;;;;6.06;58.94;97600.75;5072714;28;20485;-61
2021/10/23 01:20:42;;;;;;;4.28;1.77;;;;;;;6.06;58.26;97606.03;5071022;28;20554;-60
2021/10/23 01:23:07;;;;;;;3.15;1.60;;;;;;;6.05;58.93;97604.44;5072366;28;20033;-62
2021/10/23 01:25:34;;;;;;;3.25;1.90;;;;;;;6.08;58.42;97594.22;5072365;28;20040;-62
2021/10/23 01:28:02;;;;;;;4.70;1.73;;;;;;;6.08;58.65;97596.84;5072251;28;20047;-60
2021/10/23 01:30:28;;;;;;;5.00;1.88;;;;;;;6.10;58.73;97596.59;5071919;28;20143;-61
2021/10/23 01:32:54;;;;;;;3.75;2.17;;;;;;;6.11;58.67;97587.66;5072053;28;20047;-60
2021/10/23 01:35:24;;;;;;;4.35;1.88;;;;;;;6.13;58.91;97594.25;5071858;28;20040;-59
2021/10/23 01:37:50;;;;;;;2.17;1.80;;;;;;;6.16;58.58;97592.19;5072027;28;20519;-60
2021/10/23 01:40:19;;;;;;;5.75;1.85;;;;;;;6.19;59.10;97581.94;5071838;28;20044;-59
2021/10/23 01:42:45;;;;;;;3.00;2.38;;;;;;;6.23;58.67;97590.13;5070426;28;20132;-59
2021/10/23 01:45:11;;;;;;;5.07;2.17;;;;;;;6.25;58.58;97588.81;5071804;28;20131;-63
2021/10/23 01:47:41;;;;;;;3.00;1.80;;;;;;;6.27;58.76;97583.31;5072032;28;20067;-61
2021/10/23 01:50:28;;;;;;;4.03;2.00;;;;;;;6.31;58.33;97587.81;5071893;28;20052;-61
2021/10/23 01:52:56;;;;;;;2.75;2.22;;;;;;;6.36;58.45;97590.47;5071674;28;20142;-61
2021/10/23 01:55:22;;;;;;;4.45;2.08;;;;;;;6.42;58.75;97591.31;5071902;28;20063;-63
2021/10/23 01:57:48;;;;;;;3.33;1.98;;;;;;;6.42;58.75;97585.25;5071926;28;20461;-62
2021/10/23 02:00:16;;;;;;;3.60;1.88;;;;;;;6.44;58.81;97597.13;5071017;28;20410;-63
2021/10/23 02:02:42;;;;;;;5.47;2.20;;;;;;;6.45;58.78;97593.44;5071764;28;20508;-60
2021/10/23 02:05:09;;;;;;;4.40;2.00;;;;;;;6.43;58.62;97587.63;5070273;28;20147;-61
2021/10/23 02:07:35;;;;;;;4.53;2.25;;;;;;;6.45;58.74;97592.63;5071522;28;20036;-61
2021/10/23 02:10:01;;;;;;;3.17;1.80;;;;;;;6.48;58.58;97587.66;5069905;28;20067;-60
2021/10/23 02:12:28;;;;;;;4.20;2.13;;;;;;;6.49;58.61;97599.75;5071128;28;20040;-61
2021/10/23 02:14:53;;;;;;;7.82;2.20;;;;;;;6.54;58.60;97612.94;5071631;28;20053;-62
2021/10/23 02:17:19;;;;;;;4.38;2.40;;;;;;;6.46;58.93;97607.38;5071459;28;20391;-61
2021/10/23 02:19:45;;;;;;;6.85;2.17;;;;;;;6.52;58.64;97611.63;5071343;28;20048;-62
2021/10/23 02:22:11;;;;;;;5.47;2.45;;;;;;;6.64;58.15;97603.53;5071304;28;20036;-63
2021/10/23 02:24:37;;;;;;;2.05;1.70;;;;;;;6.65;58.42;97602.47;5071237;28;20059;-63
2021/10/23 02:27:03;;;;;;;3.65;2.17;;;;;;;6.66;58.21;97599.59;5071282;28;20036;-63
2021/10/23 02:29:32;;;;;;;5.68;2.10;;;;;;;6.67;58.28;97595.13;5070201;28;20037;-62
2021/10/23 02:31:57;;;;;;;3.75;2.35;;;;;;;6.70;58.01;97605.13;5071211;28;20056;-64
2021/10/23 02:34:23;;;;;;;4.85;2.05;;;;;;;6.66;58.54;97596.16;5071738;28;20298;-63
2021/10/23 02:36:49;;;;;;;4.85;2.88;;;;;;;6.62;58.17;97595.91;5071158;28;20165;-64
2021/10/23 02:39:15;;;;;;;4.60;2.10;;;;;;;6.62;58.76;97598.53;5069752;28;20044;-64
2021/10/23 02:41:40;;;;;;;4.55;2.10;;;;;;;6.69;58.89;97595.66;5071388;28;20049;-63
2021/10/23 02:44:06;;;;;;;3.33;2.22;;;;;;;6.62;58.48;97608.25;5071514;28;20556;-63
2021/10/23 02:46:32;;;;;;;4.50;2.00;;;;;;;6.59;58.26;97610.34;5071125;28;20044;-64
2021/10/23 02:48:59;;;;;;;4.70;2.63;;;;;;;6.69;58.24;97608.81;5071422;28;20080;-64
2021/10/23 02:51:24;;;;;;;6.15;2.00;;;;;;;6.68;58.14;97597.50;5071017;28;20087;-65
2021/10/23 02:53:50;;;;;;;3.63;2.20;;;;;;;6.66;58.43;97599.59;5071421;28;20040;-65
2021/10/23 02:56:16;;;;;;;5.68;2.40;;;;;;;6.71;58.18;97617.28;5071214;28;20045;-65
2021/10/23 02:58:42;;;;;;;3.33;2.10;;;;;;;6.71;58.43;97620.69;5069887;28;20044;-65
2021/10/23 03:01:07;;;;;;;4.03;2.00;;;;;;;6.73;58.45;97617.78;5069578;28;20036;-65
2021/10/23 03:03:33;;;;;;;6.40;2.35;;;;;;;6.73;58.57;97618.56;5071218;28;20523;-65
2021/10/23 03:05:59;;;;;;;4.65;2.15;;;;;;;6.75;58.18;97618.34;5071052;28;20076;-65
2021/10/23 03:08:25;;;;;;;9.73;2.42;;;;;;;6.77;58.63;97616.25;5070735;28;20502;-64
2021/10/23 03:10:50;;;;;;;5.35;2.40;;;;;;;6.82;58.58;97618.88;5069524;28;20048;-64
2021/10/23 03:13:18;;;;;;;3.55;2.10;;;;;;;6.81;58.28;97622.56;5071083;28;20044;-64
2021/10/23 03:15:44;;;;;;;6.65;2.28;;;;;;;6.84;58.24;97632.59;5070803;28;20048;-64
2021/10/23 03:18:10;;;;;;;4.35;2.30;;;;;;;6.87;58.29;97626.03;5069772;28;20183;-63
2021/10/23 03:20:36;;;;;;;4.60;2.22;;;;;;;6.88;58.27;97628.38;5070757;28;20493;-64
2021/10/23 03:23:02;;;;;;;6.57;2.40;;;;;;;6.78;58.10;97629.13;5070821;28;20044;-64
2021/10/23 03:25:28;;;;;;;7.95;3.17;;;;;;;6.85;58.22;97622.84;5074199;28;20037;-63
2021/10/23 03:27:53;;;;;;;5.53;2.47;;;;;;;6.82;58.34;97630.22;5074528;28;20059;-62
2021/10/23 03:30:19;;;;;;;4.20;2.45;;;;;;;6.77;58.15;97622.31;5072978;28;20052;-62
2021/10/23 03:32:45;;;;;;;3.03;2.10;;;;;;;6.84;58.36;97622.06;5074418;28;20055;-61
2021/10/23 03:35:12;;;;;;;4.57;2.30;;;;;;;6.81;58.07;97617.31;5074499;28;20036;-62
2021/10/23 03:37:37;;;;;;;3.00;2.22;;;;;;;6.81;57.97;97625.22;5074579;28;20391;-61
2021/10/23 03:40:06;;;;;;;3.45;2.25;;;;;;;6.81;58.49;97628.63;5072887;28;20234;-63
2021/10/23 03:42:32;;;;;;;4.05;2.28;;;;;;;6.81;57.75;97630.47;5074283;28;20044;-63
2021/10/23 03:44:57;;;;;;;4.30;2.42;;;;;;;6.89;58.13;97637.91;5072829;28;20055;-63
2021/10/23 03:47:23;;;;;;;3.28;2.25;;;;;;;6.91;58.14;97632.34;5074135;28;20201;-62
2021/10/23 03:49:49;;;;;;;4.25;2.50;;;;;;;6.88;58.41;97625.75;5073872;28;20059;-62
2021/10/23 03:52:15;;;;;;;5.63;2.45;;;;;;;6.86;58.25;97627.88;5072801;28;20052;-62
2021/10/23 03:54:41;;;;;;;6.90;2.58;;;;;;;6.86;58.33;97633.16;5073011;28;20157;-61
2021/10/23 03:57:07;;;;;;;4.30;2.33;;;;;;;6.86;58.08;97635.78;5074170;28;20417;-64
2021/10/23 03:59:33;;;;;;;5.00;2.58;;;;;;;6.75;58.66;97644.66;5074252;28;20036;-65
2021/10/23 04:01:59;;;;;;;9.07;3.08;;;;;;;6.69;58.40;97640.41;5073765;28;20048;-64
2021/10/23 04:04:25;;;;;;;6.13;2.65;;;;;;;6.71;58.64;97640.97;5074088;28;20045;-62
2021/10/23 04:06:51;;;;;;;4.40;2.60;;;;;;;6.64;58.95;97638.53;5073626;28;20082;-67
2021/10/23 04:09:17;;;;;;;7.35;3.08;;;;;;;6.63;58.66;97641.44;5073670;28;20060;-66
2021/10/23 04:11:43;;;;;;;3.78;2.50;;;;;;;6.63;59.04;97652.75;5055735;28;20052;-65
2021/10/23 04:14:09;;;;;;;5.68;2.55;;;;;;;6.59;58.83;97641.16;5072495;28;20480;-59
2021/10/23 04:16:35;;;;;;;3.83;2.90;;;;;;;6.59;59.25;97641.16;5072189;28;20052;-62
2021/10/23 04:19:01;;;;;;;3.75;2.60;;;;;;;6.62;58.80;97642.47;5072223;28;20046;-61
2021/10/23 04:21:27;;;;;;;9.10;3.15;;;;;;;6.60;59.04;97640.91;5073465;28;20513;-61
2021/10/23 04:23:53;;;;;;;4.82;2.47;;;;;;;6.61;58.88;97644.31;5072727;28;20040;-61
2021/10/23 04:26:19;;;;;;;5.30;2.83;;;;;;;6.63;59.18;97646.72;5073339;28;20051;-61
2021/10/23 04:28:45;;;;;;;6.63;2.72;;;;;;;6.68;59.08;97649.38;5073727;28;20048;-61
2021/10/23 04:31:11;;;;;;;5.50;3.38;;;;;;;6.70;59.13;97650.69;5073330;28;20044;-60
2021/10/23 04:33:37;;;;;;;6.25;2.90;;;;;;;6.72;58.63;97653.88;5073547;28;20129;-61
2021/10/23 04:36:03;;;;;;;6.40;3.00;;;;;;;6.77;59.00;97656.53;5072216;28;20040;-59
2021/10/23 04:38:28;;;;;;;4.88;2.67;;;;;;;6.77;58.53;97650.47;5073383;28;20048;-62
2021/10/23 04:40:54;;;;;;;5.70;2.95;;;;;;;6.83;58.89;97660.00;5071836;28;20473;-65
2021/10/23 04:43:20;;;;;;;3.90;2.65;;;;;;;6.85;58.56;97660.50;5071769;28;20181;-63
2021/10/23 04:45:46;;;;;;;4.25;2.78;;;;;;;6.82;58.67;97659.22;5072907;28;20059;-64
2021/10/23 04:48:12;;;;;;;3.90;2.80;;;;;;;6.87;58.20;97661.06;5072965;28;20046;-64
2021/10/23 04:50:37;;;;;;;5.55;2.97;;;;;;;6.99;58.17;97666.13;5072453;28;20051;-63
2021/10/23 04:53:03;;;;;;;7.57;3.03;;;;;;;7.00;58.27;97665.06;5072987;28;20078;-65
2021/10/23 04:55:29;;;;;;;4.15;2.83;;;;;;;7.00;58.44;97665.88;5072660;28;20049;-64
2021/10/23 04:57:57;;;;;;;5.97;2.78;;;;;;;7.02;58.22;97661.13;5072773;28;20040;-64
2021/10/23 05:00:26;;;;;;;6.38;3.15;;;;;;;7.08;58.15;97661.16;5071423;28;20055;-64
2021/10/23 05:02:52;;;;;;;5.57;3.10;;;;;;;7.02;58.24;97655.84;5072657;28;20041;-64
2021/10/23 05:05:18;;;;;;;5.20;2.90;;;;;;;7.07;58.43;97659.59;5072795;28;20040;-64
2021/10/23 05:07:44;;;;;;;5.53;2.70;;;;;;;7.10;58.30;97661.72;5072544;28;20083;-64
2021/10/23 05:10:13;;;;;;;6.35;3.08;;;;;;;7.13;58.10;97661.97;5071238;28;20084;-63
2021/10/23 05:12:39;;;;;;;6.80;3.10;;;;;;;7.11;58.32;97663.28;5072429;28;20048;-65
2021/10/23 05:15:06;;;;;;;5.65;2.70;;;;;;;7.08;58.68;97656.69;5071016;28;20080;-63
2021/10/23 05:17:34;;;;;;;6.33;2.87;;;;;;;7.08;58.50;97661.94;5071165;28;20036;-64
2021/10/23 05:20:00;;;;;;;4.70;3.00;;;;;;;7.09;58.74;97658.28;5072512;28;20052;-64
2021/10/23 05:22:27;;;;;;;7.97;2.92;;;;;;;7.18;58.20;97667.28;5071088;28;20086;-66
2021/10/23 05:24:52;;;;;;;4.35;2.90;;;;;;;7.24;58.00;97662.81;5072056;28;20081;-65
2021/10/23 05:27:18;;;;;;;3.42;2.58;;;;;;;7.28;57.99;97664.66;5072153;28;20207;-66
2021/10/23 05:29:44;;;;;;;9.05;3.53;;;;;;;7.31;57.35;97671.28;5072262;28;20068;-66
2021/10/23 05:32:10;;;;;;;7.03;3.22;;;;;;;7.40;57.51;97667.09;5071975;28;20506;-65
2021/10/23 05:34:35;;;;;;;5.80;2.90;;;;;;;7.47;57.43;97677.38;5071069;28;20044;-66
2021/10/23 05:37:01;;;;;;;6.25;2.75;;;;;;;7.49;57.53;97676.06;5054129;28;20219;-64
2021/10/23 05:39:27;;;;;;;4.38;2.50;;;;;;;7.51;57.35;97676.63;5072211;28;20139;-64
2021/10/23 05:41:53;;;;;;;5.47;2.75;;;;;;;7.46;57.65;97671.31;5070229;28;20139;-61
2021/10/23 05:44:19;;;;;;;9.13;2.97;;;;;;;7.46;57.52;97675.81;5071699;28;20086;-61
2021/10/23 05:46:45;;;;;;;6.93;2.67;;;;;;;7.43;57.54;97673.69;5071361;28;20067;-60
2021/10/23 05:49:10;;;;;;;10.32;2.95;;;;;;;7.33;57.53;97681.56;5071033;28;20136;-61
2021/10/23 05:51:36;;;;;;;12.43;3.42;;;;;;;7.25;58.06;97677.56;5071306;28;20441;-61
2021/10/23 05:54:02;;;;;;;8.80;2.67;;;;;;;7.15;58.48;97682.81;5071586;28;20037;-60
2021/10/23 05:56:28;;;;;;;5.20;2.67;;;;;;;7.11;58.51;97671.19;5071109;28;20086;-61
2021/10/23 05:58:59;;;;;;;8.02;3.13;;;;;;;7.15;58.47;97688.09;5071313;28;20044;-59
2021/10/23 06:01:25;;;;;;;4.50;2.67;;;;;;;7.32;58.14;97686.03;5071332;28;20040;-61
2021/10/23 06:03:51;;;;;;;5.93;3.00;;;;;;;7.38;57.96;97682.38;5071619;28;20083;-61
2021/10/23 06:06:17;;;;;;;6.57;2.80;;;;;;;7.31;58.12;97687.09;5071658;28;20068;-61
2021/10/23 06:08:44;;;;;;;4.85;2.95;;;;;;;7.22;58.06;97691.28;5069985;28;20102;-60
2021/10/23 06:11:11;;;;;;;3.80;2.78;;;;;;;7.17;58.21;97678.06;5053478;28;20048;-60
2021/10/23 06:13:37;;;;;;;4.70;2.75;;;;;;;7.14;58.69;97687.28;5070371;28;20040;-60
2021/10/23 06:16:02;;;;;;;6.18;2.90;;;;;;;7.17;58.29;97678.84;5070425;28;20048;-61
2021/10/23 06:18:28;;;;;;;4.45;2.78;;;;;;;7.14;58.50;97692.53;5071711;28;20059;-61
2021/10/23 06:20:54;;;;;;;6.40;2.78;;;;;;;7.12;58.49;97688.56;5071473;28;20076;-59
2021/10/23 06:23:20;;;;;;;5.82;2.67;;;;;;;7.09;58.96;97689.09;5071546;28;20070;-59
2021/10/23 06:25:46;;;;;;;7.05;4.00;;;;;;;7.08;58.54;97683.03;5071099;28;20048;-62
2021/10/23 06:28:12;;;;;;;4.20;2.75;;;;;;;7.11;58.39;97693.06;5071303;28;20398;-59
2021/10/23 06:30:37;;;;;;;7.65;2.83;;;;;;;7.18;58.30;97693.63;5071099;28;20053;-60
2021/10/23 06:33:03;;;;;;;5.43;2.75;;;;;;;7.27;58.79;97699.22;5071006;28;20044;-61
2021/10/23 06:35:30;;;;;;;4.32;2.88;;;;;;;7.45;57.65;97703.22;5070043;28;20459;-61
2021/10/23 06:37:56;;;;;;;5.18;2.78;;;;;;;7.52;57.65;97701.13;5070040;28;20045;-61
2021/10/23 06:40:22;;;;;;;6.30;2.95;;;;;;;7.69;56.63;97707.00;5070940;28;20055;-61
2021/10/23 06:42:48;;;;;;;7.60;3.00;;;;;;;7.83;56.66;97711.78;5069663;28;20044;-60
2021/10/23 06:45:14;;;;;;;3.95;2.75;;;;;;;7.85;55.96;97707.84;5069649;28;20051;-63
2021/10/23 06:47:40;;;;;;;7.22;3.72;;;;;;;7.93;56.14;97709.94;5069734;28;20505;-61
2021/10/23 06:50:08;;;;;;;4.68;2.30;;;;;;;8.01;55.94;97710.50;5069886;28;20526;-59
2021/10/23 06:52:34;;;;;;;3.42;2.42;;;;;;;8.08;55.73;97706.53;5071114;28;20047;-61
2021/10/23 06:55:01;;;;;;;7.57;2.60;;;;;;;8.13;55.01;97697.84;5069491;28;20044;-59
2021/10/23 06:57:26;;;;;;;6.10;2.72;;;;;;;8.19;54.95;97699.44;5070780;28;20174;-60
2021/10/23 06:59:52;;;;;;;4.47;2.30;;;;;;;8.33;55.33;97710.28;5073539;28;20087;-62
2021/10/23 07:02:18;;;;;;;5.60;2.35;;;;;;;8.43;54.61;97707.66;5074732;28;20076;-63
2021/10/23 07:04:44;;;;;;;2.78;2.35;;;;;;;8.43;54.27;97706.88;5074675;28;20131;-61
2021/10/23 07:07:10;;;;;;;6.38;2.50;;;;;;;8.45;54.15;97695.00;5074934;28;20040;-62
2021/10/23 07:09:35;;;;;;;3.97;3.08;;;;;;;8.50;54.14;97705.56;5074656;28;20514;-63
2021/10/23 07:12:02;;;;;;;5.70;2.55;;;;;;;8.52;53.85;97700.00;5074429;28;20084;-61
2021/10/23 07:14:28;;;;;;;5.57;2.42;;;;;;;8.60;54.21;97694.19;5075090;28;20474;-62
2021/10/23 07:16:53;;;;;;;5.68;2.45;;;;;;;8.57;52.95;97716.66;5074561;28;20086;-63
2021/10/23 07:19:19;;;;;;;6.47;2.35;;;;;;;8.55;53.38;97704.75;5074925;28;20039;-62
2021/10/23 07:21:45;;;;;;;4.68;2.53;;;;;;;8.56;53.86;97715.06;5074601;28;20056;-64
2021/10/23 07:24:11;;;;;;;7.72;2.80;;;;;;;8.70;54.10;97712.66;5074826;28;20127;-62
2021/10/23 07:26:37;;;;;;;9.63;2.60;;;;;;;8.74;53.27;97718.22;5074358;28;20419;-64
2021/10/23 07:29:08;;;;;;;2.80;2.10;;;;;;;8.72;53.66;97721.13;5074551;28;20443;-63
2021/10/23 07:31:34;;;;;;;6.28;2.45;;;;;;;8.74;53.31;97723.50;5072997;28;20071;-62
2021/10/23 07:34:00;;;;;;;4.63;2.38;;;;;;;8.83;53.47;97727.19;5074558;28;20466;-63
2021/10/23 07:36:27;;;;;;;6.78;2.63;;;;;;;8.82;53.36;97722.94;5074115;28;20043;-62
2021/10/23 07:38:53;;;;;;;7.38;2.55;;;;;;;8.76;53.19;97718.75;5072944;28;20067;-61
2021/10/23 07:41:19;;;;;;;3.17;2.67;;;;;;;8.81;53.04;97727.44;5074252;28;20044;-62
2021/10/23 07:43:45;;;;;;;4.78;2.75;;;;;;;8.77;53.34;97725.63;5072556;28;20068;-63
2021/10/23 07:46:12;;;;;;;7.28;2.75;;;;;;;8.90;53.22;97735.63;5056278;28;20079;-63
2021/10/23 07:48:38;;;;;;;9.40;2.70;;;;;;;8.90;53.27;97740.13;5074124;28;20489;-62
2021/10/23 07:51:04;;;;;;;8.25;2.80;;;;;;;8.97;53.47;97743.28;5073839;28;20052;-62
2021/10/23 07:53:30;;;;;;;6.22;2.60;;;;;;;9.08;52.56;97740.34;5072715;28;20123;-62
2021/10/23 07:55:56;;;;;;;5.10;2.85;;;;;;;9.06;52.92;97737.19;5073754;28;20057;-64
2021/10/23 07:58:22;;;;;;;8.32;2.97;;;;;;;9.13;52.28;97750.13;5074251;28;20061;-62
2021/10/23 08:00:50;;;;;;;4.68;2.65;;;;;;;9.07;52.42;97743.28;5073786;28;20044;-63
2021/10/23 08:03:15;;;;;;;7.72;2.72;;;;;;;9.09;52.15;97755.16;5073233;28;20044;-61
2021/10/23 08:05:41;;;;;;;7.22;3.08;;;;;;;9.06;52.75;97758.34;5073560;28;20040;-63
2021/10/23 08:08:07;;;;;;;7.85;2.90;;;;;;;9.02;53.43;97752.00;5073618;28;20044;-64
2021/10/23 08:10:34;;;;;;;7.25;2.97;;;;;;;9.02;53.09;97751.22;5071621;28;20135;-65
2021/10/23 08:13:02;;;;;;;7.53;3.05;;;;;;;8.96;52.87;97750.41;5073870;28;20489;-62
2021/10/23 08:15:28;;;;;;;6.95;2.95;;;;;;;8.95;53.00;97750.69;5073471;28;20036;-62
2021/10/23 08:17:55;;;;;;;7.00;2.47;;;;;;;8.96;52.83;97741.69;5073487;28;20608;-63
2021/10/23 08:20:21;;;;;;;11.70;3.38;;;;;;;8.95;52.94;97748.84;5073736;28;20041;-64
2021/10/23 08:22:47;;;;;;;8.20;2.88;;;;;;;8.92;52.92;97748.59;5073459;28;20501;-62
2021/10/23 08:25:13;;;;;;;6.60;3.13;;;;;;;8.96;53.35;97755.69;5073364;28;20048;-63
2021/10/23 08:27:43;;;;;;;12.02;3.13;;;;;;;8.89;53.81;97757.84;5073349;28;20036;-64
2021/10/23 08:30:13;;;;;;;7.73;2.80;;;;;;;8.86;54.38;97761.00;5073045;28;20116;-63
2021/10/23 08:32:41;;;;;;;6.22;3.00;;;;;;;8.74;53.63;97732.22;5071837;28;20541;-63
2021/10/23 08:35:08;;;;;;;8.82;4.53;;;;;;;9.01;54.25;97760.19;5073101;28;20093;-61
2021/10/23 08:37:34;;;;;;;7.18;3.10;;;;;;;9.18;53.01;97762.56;5073361;28;20100;-63
2021/10/23 08:40:00;;;;;;;10.02;3.40;;;;;;;9.28;52.79;97751.94;5072847;28;20509;-62
2021/10/23 08:42:27;;;;;;;9.20;2.95;;;;;;;9.29;52.83;97751.69;5073232;28;20414;-62
2021/10/23 08:44:56;;;;;;;9.75;3.08;;;;;;;9.31;52.45;97760.13;5071611;28;20514;-63
2021/10/23 08:47:23;;;;;;;8.05;3.42;;;;;;;9.30;52.14;97755.91;5071646;28;20135;-63
2021/10/23 08:49:50;;;;;;;11.23;3.20;;;;;;;9.23;53.06;97755.38;5071735;28;20041;-64
2021/10/23 08:52:16;;;;;;;8.68;3.45;;;;;;;9.16;52.81;97756.75;5071659;28;20083;-63
2021/10/23 08:54:41;;;;;;;6.50;3.53;;;;;;;9.17;52.90;97756.47;5072941;28;20079;-63
2021/10/23 08:57:07;;;;;;;7.25;3.63;;;;;;;9.04;52.99;97759.66;5072838;28;20509;-63
2021/10/23 08:59:33;;;;;;;4.95;3.13;;;;;;;9.05;52.70;97764.66;5073105;28;20051;-62
2021/10/23 09:02:01;;;;;;;7.45;3.70;;;;;;;9.19;53.33;97767.56;5071099;28;20044;-63
2021/10/23 09:04:31;;;;;;;6.70;3.17;;;;;;;9.16;53.05;97756.75;5054772;28;20041;-63
2021/10/23 09:07:08;;;;;;;7.90;3.10;;;;;;;9.31;52.57;97762.78;5072310;28;20044;-64
2021/10/23 09:09:45;;;;;;;7.40;3.60;;;;;;;9.44;52.03;97771.19;5070921;28;20501;-64
2021/10/23 09:12:25;;;;;;;8.77;3.10;;;;;;;9.43;52.96;97767.75;5071133;28;20119;-63
2021/10/23 09:15:02;;;;;;;9.63;4.25;;;;;;;9.48;51.89;97764.31;5071245;28;20513;-62
2021/10/23 09:17:29;;;;;;;7.90;3.30;;;;;;;9.51;51.78;97771.72;5071166;28;20044;-63
2021/10/23 09:19:58;;;;;;;7.15;3.40;;;;;;;9.45;52.47;97770.16;5072512;28;20045;-62
2021/10/23 09:22:32;;;;;;;8.52;3.25;;;;;;;9.45;52.56;97772.81;5072318;28;20036;-61
2021/10/23 09:25:17;;;;;;;8.45;3.50;;;;;;;9.47;51.81;97766.19;5070883;28;20102;-62
2021/10/23 09:27:52;;;;;;;6.00;3.08;;;;;;;9.55;52.42;97770.91;5070880;28;20442;-65
2021/10/23 09:30:20;;;;;;;8.50;3.47;;;;;;;9.51;52.24;97761.94;5070967;28;20051;-64
2021/10/23 09:32:54;;;;;;;8.82;3.75;;;;;;;9.61;52.05;97771.66;5070718;28;20485;-64
2021/10/23 09:35:24;;;;;;;6.93;3.80;;;;;;;9.63;51.44;97769.56;5072266;28;20059;-64
2021/10/23 09:37:58;;;;;;;7.80;3.70;;;;;;;9.65;51.46;97771.94;5070717;28;20037;-62
2021/10/23 09:40:26;;;;;;;6.43;3.20;;;;;;;9.70;51.06;97775.34;5071842;28;20040;-62
2021/10/23 09:43:11;;;;;;;7.47;3.83;;;;;;;9.83;51.45;97781.13;5071954;28;20040;-63
2021/10/23 09:45:55;;;;;;;8.40;3.78;;;;;;;9.95;50.64;97782.38;5054240;28;20049;-63
2021/10/23 09:48:41;;;;;;;5.60;3.55;;;;;;;9.91;50.62;97780.53;5071694;28;20044;-65
2021/10/23 09:51:21;;;;;;;7.30;3.50;;;;;;;9.94;51.25;97782.66;5070297;28;20556;-64
2021/10/23 09:53:54;;;;;;;11.02;2.92;;;;;;;9.97;50.51;97790.03;5070422;28;20036;-66
2021/10/23 09:56:27;;;;;;;7.55;3.53;;;;;;;9.94;50.81;97794.06;5071958;28;20068;-64
2021/10/23 09:59:09;;;;;;;10.38;3.70;;;;;;;9.91;50.79;97789.31;5072025;28;20429;-65
2021/10/23 10:01:35;;;;;;;9.13;3.65;;;;;;;9.91;50.49;97802.53;5037452;28;20056;-65
2021/10/23 10:04:09;;;;;;;5.80;3.35;;;;;;;9.85;50.81;97802.81;5071847;28;20051;-64
2021/10/23 10:06:48;;;;;;;6.78;3.95;;;;;;;9.72;50.95;97807.63;5071455;28;20040;-64
2021/10/23 10:09:23;;;;;;;7.32;3.20;;;;;;;9.60;50.86;97806.34;5071115;28;20084;-65
2021/10/23 10:11:50;;;;;;;9.00;3.63;;;;;;;9.67;51.28;97801.56;5070909;28;20052;-63
2021/10/23 10:14:17;;;;;;;8.85;3.40;;;;;;;9.67;51.04;97799.69;5071691;28;20051;-65
2021/10/23 10:16:47;;;;;;;10.02;4.10;;;;;;;9.64;51.94;97816.09;5071095;28;20091;-67
2021/10/23 10:19:15;;;;;;;10.25;3.92;;;;;;;9.74;51.28;97817.94;5070233;28;20699;-64
2021/10/23 10:21:42;;;;;;;8.38;3.65;;;;;;;9.68;51.11;97814.53;5070337;28;20053;-65
2021/10/23 10:24:28;;;;;;;6.15;3.08;;;;;;;9.68;51.77;97809.22;5069961;28;20044;-64
2021/10/23 10:27:02;;;;;;;8.50;3.58;;;;;;;9.56;51.02;97806.09;5071275;28;20051;-65
2021/10/23 10:29:37;;;;;;;7.43;3.58;;;;;;;9.57;51.97;97804.25;5070151;28;20077;-63
2021/10/23 10:32:23;;;;;;;6.80;3.53;;;;;;;9.57;52.01;97810.31;5069866;28;20064;-64
2021/10/23 10:42:56;;;;;;;7.97;3.40;;;;;;;9.64;51.50;97812.66;5071139;28;20048;-61
2021/10/23 10:45:47;;;;;;;5.13;3.25;;;;;;;9.82;51.48;97804.13;5071021;28;20421;-61
2021/10/23 10:48:26;;;;;;;6.03;3.40;;;;;;;9.98;51.30;97797.72;5069713;28;20060;-62
2021/10/23 10:50:57;;;;;;;7.47;3.83;;;;;;;10.11;51.15;97808.78;5070486;28;20530;-63
2021/10/23 10:53:23;;;;;;;7.03;3.50;;;;;;;9.98;51.07;97803.03;5069621;28;20036;-62
2021/10/23 10:55:55;;;;;;;11.63;3.70;;;;;;;9.82;51.51;97798.84;5069606;28;20090;-62
2021/10/23 10:58:56;;;;;;;8.45;3.60;;;;;;;9.64;50.50;97796.81;5070951;28;20040;-62
2021/10/23 11:01:23;;;;;;;6.18;2.88;;;;;;;9.48;51.18;97798.72;5069768;28;20404;-63
2021/10/23 11:03:51;;;;;;;6.65;3.17;;;;;;;9.26;51.49;97796.38;5071265;28;20040;-62
2021/10/23 11:06:38;;;;;;;5.80;3.00;;;;;;;9.20;51.67;97797.44;5070873;28;20041;-62
2021/10/23 11:09:10;;;;;;;10.20;3.28;;;;;;;9.13;52.38;97797.72;5070724;28;20057;-62
2021/10/23 11:11:49;;;;;;;6.05;3.40;;;;;;;9.13;52.56;97802.22;5070987;28;20044;-63
2021/10/23 11:14:24;;;;;;;7.57;3.15;;;;;;;9.00;52.18;97793.78;5070705;28;20028;-64
2021/10/23 11:17:00;;;;;;;7.47;3.05;;;;;;;9.01;52.47;97790.06;5069589;28;20044;-65
2021/10/23 11:19:31;;;;;;;5.10;3.15;;;;;;;9.10;52.12;97795.59;5071220;28;20608;-65
2021/10/23 11:22:03;;;;;;;9.82;3.00;;;;;;;9.15;52.08;97798.25;5069743;28;20049;-64
2021/10/23 11:24:42;;;;;;;5.57;3.17;;;;;;;9.24;51.49;97793.22;5070562;28;20098;-65
2021/10/23 11:27:28;;;;;;;7.22;3.05;;;;;;;9.26;51.51;97799.00;5070179;28;20048;-66
2021/10/23 11:30:11;;;;;;;9.30;3.00;;;;;;;9.36;50.81;97806.94;5063331;28;20048;-64
2021/10/23 11:32:47;;;;;;;12.15;2.92;;;;;;;9.35;50.44;97802.69;5070503;28;20047;-65
2021/10/23 11:35:13;;;;;;;9.35;3.30;;;;;;;9.39;50.49;97810.91;5068762;28;20123;-63
2021/10/23 11:37:40;;;;;;;5.25;2.78;;;;;;;9.45;50.01;97815.91;5068117;28;20051;-64
2021/10/23 11:40:11;;;;;;;4.45;2.80;;;;;;;9.44;50.00;97802.94;5049632;28;20068;-63
2021/10/23 11:42:44;;;;;;;7.93;2.80;;;;;;;9.40;49.15;97815.13;5070753;28;20139;-63
2021/10/23 11:45:23;;;;;;;4.85;2.63;;;;;;;9.29;50.00;97815.16;5068964;28;20064;-64
2021/10/23 11:47:56;;;;;;;6.25;4.03;;;;;;;9.33;49.73;97810.91;5073663;28;20123;-65
2021/10/23 11:50:28;;;;;;;4.57;2.80;;;;;;;9.30;50.39;97822.00;5072786;28;20049;-65
2021/10/23 11:52:59;;;;;;;3.97;2.60;;;;;;;9.30;50.00;97824.66;5037406;28;20436;-66